Time;durP1;ratioP1;P1;durP2;ratioP2;P2;SDS_P1;SDS_P2;PMS_P1;PMS_P2;Temp;Humidity;BMP_temperature;BMP_pressure;BME280_temperature;BME280_humidity;BME280_pressure;Samples;Min_cycle;Max_cycle;Signal;HPM_P1;HPM_P2
2022/06/16 00:00:49;;;;;;;4.70;2.57;;;14.90;99.90;;;;;;5013787;28;20219;-76
2022/06/16 00:03:33;;;;;;;4.20;2.70;;;14.80;99.90;;;;;;5018062;28;20257;-75
2022/06/16 00:06:17;;;;;;;4.97;2.33;;;14.80;99.90;;;;;;5031768;28;20214;-75
2022/06/16 00:09:01;;;;;;;6.23;2.53;;;14.90;99.90;;;;;;5018515;28;20238;-75
2022/06/16 00:11:46;;;;;;;4.30;2.40;;;14.80;99.90;;;;;;5014244;28;20292;-73
2022/06/16 00:14:30;;;;;;;6.13;2.33;;;14.70;99.90;;;;;;5011183;28;20187;-76
2022/06/16 00:17:14;;;;;;;5.40;2.63;;;14.70;99.90;;;;;;5007103;28;20191;-74
2022/06/16 00:20:00;;;;;;;6.33;2.93;;;14.70;99.90;;;;;;5007206;28;20274;-76
2022/06/16 00:22:44;;;;;;;5.30;2.73;;;14.70;99.90;;;;;;5008947;28;20184;-75
2022/06/16 00:25:28;;;;;;;5.87;2.67;;;14.70;99.90;;;;;;5025543;28;20195;-76
2022/06/16 00:28:13;;;;;;;4.10;2.37;;;14.60;99.90;;;;;;5012840;28;20850;-76
2022/06/16 00:31:05;;;;;;;4.47;2.53;;;14.60;99.90;;;;;;5014689;28;20303;-75
2022/06/16 00:33:58;;;;;;;5.63;2.70;;;14.60;99.90;;;;;;5025811;28;20257;-72
2022/06/16 00:36:43;;;;;;;4.60;2.80;;;14.50;99.90;;;;;;5016150;28;20234;-76
2022/06/16 00:39:27;;;;;;;4.97;2.97;;;14.50;99.90;;;;;;5008298;28;20259;-76
2022/06/16 00:42:24;;;;;;;4.30;2.37;;;14.50;99.90;;;;;;5013338;28;20229;-75
2022/06/16 00:45:49;;;;;;;4.20;2.47;;;14.50;99.90;;;;;;5017775;28;20184;-77
2022/06/16 00:48:49;;;;;;;5.13;2.47;;;14.50;99.90;;;;;;5013397;28;20241;-75
2022/06/16 00:51:42;;;;;;;5.13;2.47;;;14.50;99.90;;;;;;5023225;28;20234;-74
2022/06/16 00:54:31;;;;;;;3.87;2.60;;;14.40;99.90;;;;;;5007930;28;20216;-75
2022/06/16 00:57:20;;;;;;;8.13;2.70;;;14.40;99.90;;;;;;5022861;28;20184;-74
2022/06/16 01:00:16;;;;;;;3.27;2.60;;;14.40;99.90;;;;;;5024809;28;20228;-76
2022/06/16 01:03:00;;;;;;;4.33;2.50;;;14.40;99.90;;;;;;5009496;28;20546;-75
2022/06/16 01:05:44;;;;;;;3.00;2.13;;;14.40;99.90;;;;;;5013713;28;20238;-75
2022/06/16 01:08:29;;;;;;;5.87;2.73;;;14.30;99.90;;;;;;5008888;28;20713;-74
2022/06/16 01:14:57;;;;;;;8.10;3.20;;;14.20;99.90;;;;;;5027239;28;20785;-76
2022/06/16 01:18:03;;;;;;;6.23;3.13;;;14.20;99.90;;;;;;5015005;28;20299;-76
2022/06/16 01:21:10;;;;;;;7.50;3.40;;;14.10;99.90;;;;;;4998717;28;20259;-75
2022/06/16 01:24:22;;;;;;;4.63;3.00;;;14.10;99.90;;;;;;5025619;28;20231;-74
2022/06/16 01:27:41;;;;;;;5.90;3.37;;;14.10;99.90;;;;;;5017641;28;20203;-75
2022/06/16 01:30:48;;;;;;;6.17;3.60;;;14.10;99.90;;;;;;5009641;28;20318;-75
2022/06/16 01:33:40;;;;;;;5.27;2.90;;;14.00;99.90;;;;;;5015272;28;20525;-77
2022/06/16 01:36:34;;;;;;;6.40;3.40;;;14.00;99.90;;;;;;5009740;28;20200;-75
2022/06/16 01:39:29;;;;;;;6.27;3.00;;;14.00;99.90;;;;;;5015201;28;20267;-75
2022/06/16 01:42:34;;;;;;;6.23;2.37;;;14.00;99.90;;;;;;5015466;28;20203;-74
2022/06/16 01:45:22;;;;;;;6.43;2.53;;;13.90;99.90;;;;;;5017241;28;20326;-73
2022/06/16 01:48:10;;;;;;;6.33;2.43;;;13.90;99.90;;;;;;5032722;28;20207;-75
2022/06/16 01:51:10;;;;;;;5.00;2.20;;;13.90;99.90;;;;;;5013796;28;20232;-73
2022/06/16 01:54:12;;;;;;;4.80;2.43;;;13.90;99.90;;;;;;5012762;28;20607;-76
2022/06/16 01:57:15;;;;;;;6.90;3.00;;;13.90;99.90;;;;;;5012992;28;20235;-76
2022/06/16 02:00:22;;;;;;;8.27;3.00;;;13.80;99.90;;;;;;5029288;28;20218;-76
2022/06/16 02:03:20;;;;;;;4.73;2.63;;;13.80;99.90;;;;;;5013575;28;20190;-75
2022/06/16 02:06:15;;;;;;;4.20;2.50;;;13.90;99.90;;;;;;5012218;28;20195;-74
2022/06/16 02:09:08;;;;;;;4.63;2.80;;;13.80;99.90;;;;;;5029462;28;20215;-76
2022/06/16 02:11:57;;;;;;;4.30;2.60;;;13.80;99.90;;;;;;5010339;28;20219;-75
2022/06/16 02:14:44;;;;;;;5.57;2.80;;;13.80;99.90;;;;;;5010421;28;20257;-75
2022/06/16 02:17:29;;;;;;;7.13;3.00;;;13.80;99.90;;;;;;5012998;28;20233;-77
2022/06/16 02:20:13;;;;;;;5.80;3.00;;;13.80;99.90;;;;;;5016303;28;20247;-75
2022/06/16 02:22:58;;;;;;;6.03;2.87;;;13.70;99.90;;;;;;5017515;28;20191;-74
2022/06/16 02:25:46;;;;;;;4.47;2.50;;;13.70;99.90;;;;;;5015327;28;20226;-74
2022/06/16 02:28:45;;;;;;;7.40;2.70;;;13.70;99.90;;;;;;5014431;28;20195;-75
2022/06/16 02:31:46;;;;;;;7.27;3.20;;;13.70;99.90;;;;;;5029818;28;20270;-74
2022/06/16 02:34:49;;;;;;;6.17;3.23;;;13.70;99.90;;;;;;5014794;28;20188;-75
2022/06/16 02:37:50;;;;;;;4.23;3.13;;;13.60;99.90;;;;;;5028011;28;20182;-76
2022/06/16 02:40:50;;;;;;;7.80;3.27;;;13.50;99.90;;;;;;5017499;28;20218;-75
2022/06/16 02:43:46;;;;;;;4.80;3.30;;;13.50;99.90;;;;;;5018693;28;20203;-75
2022/06/16 02:46:36;;;;;;;5.40;3.73;;;13.50;99.90;;;;;;5019745;28;20207;-75
2022/06/16 02:49:41;;;;;;;6.33;3.80;;;13.40;99.90;;;;;;5015156;28;20192;-75
2022/06/16 02:52:38;;;;;;;7.37;3.47;;;13.30;99.90;;;;;;5023885;28;20215;-75
2022/06/16 02:55:33;;;;;;;5.27;3.33;;;13.30;99.90;;;;;;5030456;28;20238;-74
2022/06/16 02:58:21;;;;;;;4.50;3.47;;;13.30;99.90;;;;;;5011251;28;20675;-75
2022/06/16 03:01:07;;;;;;;7.97;3.57;;;13.30;99.90;;;;;;5010073;28;20216;-76
2022/06/16 03:04:11;;;;;;;6.77;3.63;;;13.30;99.90;;;;;;5005377;28;20281;-74
2022/06/16 03:06:55;;;;;;;5.90;3.43;;;13.20;99.90;;;;;;5026265;28;20191;-73
2022/06/16 03:09:41;;;;;;;3.87;3.37;;;13.20;99.90;;;;;;5031746;28;20257;-74
2022/06/16 03:12:28;;;;;;;3.77;2.97;;;13.20;99.90;;;;;;5014622;28;20196;-74
2022/06/16 03:15:13;;;;;;;7.60;4.17;;;13.10;99.90;;;;;;5016354;28;20279;-75
2022/06/16 03:17:57;;;;;;;6.07;3.43;;;13.10;99.90;;;;;;5019088;28;20184;-74
2022/06/16 03:20:42;;;;;;;9.70;4.23;;;13.10;99.90;;;;;;5014146;28;20222;-75
2022/06/16 03:23:27;;;;;;;6.30;3.70;;;13.10;99.90;;;;;;5008295;28;20277;-75
2022/06/16 03:26:12;;;;;;;6.17;3.33;;;13.00;99.90;;;;;;5018048;28;20196;-75
2022/06/16 03:28:56;;;;;;;5.47;3.83;;;13.00;99.90;;;;;;5029280;28;20195;-75
2022/06/16 03:31:40;;;;;;;7.87;4.03;;;13.00;99.90;;;;;;5012107;28;20226;-74
2022/06/16 03:34:25;;;;;;;6.90;3.97;;;12.90;99.90;;;;;;5009363;28;20237;-74
2022/06/16 03:37:09;;;;;;;7.13;4.63;;;12.90;99.90;;;;;;5025002;28;20380;-74
2022/06/16 03:39:53;;;;;;;4.80;3.37;;;12.90;99.90;;;;;;5026202;28;20199;-74
2022/06/16 03:42:37;;;;;;;5.60;3.70;;;12.90;99.90;;;;;;5010048;28;20195;-74
2022/06/16 03:45:22;;;;;;;13.33;3.97;;;13.00;99.90;;;;;;5011224;28;20238;-71
2022/06/16 03:48:06;;;;;;;6.80;3.63;;;13.00;99.90;;;;;;5012158;28;20191;-71
2022/06/16 03:50:50;;;;;;;5.90;3.80;;;12.90;99.90;;;;;;5005596;28;20223;-72
2022/06/16 03:53:35;;;;;;;6.97;4.13;;;12.90;99.90;;;;;;5007228;28;20298;-72
2022/06/16 03:56:20;;;;;;;5.43;3.77;;;12.90;99.90;;;;;;5012733;28;20226;-72
2022/06/16 03:59:04;;;;;;;5.00;3.70;;;12.90;99.90;;;;;;5022676;28;20207;-72
2022/06/16 04:01:48;;;;;;;8.73;4.17;;;12.90;99.90;;;;;;5005497;28;20288;-72
2022/06/16 04:04:32;;;;;;;5.70;3.57;;;12.90;99.90;;;;;;5009849;28;20658;-73
2022/06/16 04:07:17;;;;;;;6.43;3.93;;;12.90;99.90;;;;;;5007943;28;20279;-73
2022/06/16 04:10:03;;;;;;;6.10;3.90;;;13.00;99.90;;;;;;5007816;28;20219;-73
2022/06/16 04:12:47;;;;;;;7.27;4.37;;;12.90;99.90;;;;;;5013769;28;20271;-73
2022/06/16 04:15:31;;;;;;;9.87;4.43;;;13.00;99.90;;;;;;5023084;28;20589;-73
2022/06/16 04:18:19;;;;;;;7.17;4.53;;;13.00;99.90;;;;;;5014440;28;20182;-73
2022/06/16 04:21:04;;;;;;;7.13;4.70;;;13.10;99.90;;;;;;5021476;28;20214;-72
2022/06/16 04:23:48;;;;;;;7.50;4.53;;;13.00;99.90;;;;;;5015184;28;20232;-72
2022/06/16 04:26:37;;;;;;;6.73;4.27;;;13.00;99.90;;;;;;5005112;28;20196;-73
2022/06/16 04:29:22;;;;;;;8.23;4.30;;;13.00;99.90;;;;;;5002705;28;20191;-73
2022/06/16 04:32:07;;;;;;;8.23;4.83;;;13.10;99.90;;;;;;5004606;28;20729;-73
2022/06/16 04:34:51;;;;;;;8.73;4.90;;;13.10;99.90;;;;;;5011415;28;20598;-73
2022/06/16 04:37:35;;;;;;;11.63;4.90;;;13.10;99.90;;;;;;5010472;28;20211;-74
2022/06/16 04:40:20;;;;;;;6.73;4.50;;;13.10;99.90;;;;;;5023657;28;20214;-72
2022/06/16 04:43:04;;;;;;;8.10;4.90;;;13.10;99.90;;;;;;5009099;28;20411;-72
2022/06/16 04:45:48;;;;;;;8.80;4.47;;;13.10;99.90;;;;;;5002386;28;20200;-73
2022/06/16 04:48:33;;;;;;;8.70;4.00;;;13.10;99.90;;;;;;5007523;28;20251;-73
2022/06/16 04:51:20;;;;;;;10.00;4.80;;;13.10;99.90;;;;;;5008708;28;20247;-73
2022/06/16 04:54:04;;;;;;;9.63;4.40;;;13.10;99.90;;;;;;5011764;28;20269;-73
2022/06/16 04:56:49;;;;;;;6.07;4.20;;;13.20;99.90;;;;;;5003901;28;20207;-72
2022/06/16 04:59:33;;;;;;;9.17;3.67;;;13.20;99.90;;;;;;5011242;28;20225;-72
2022/06/16 05:02:17;;;;;;;8.10;3.63;;;13.30;99.90;;;;;;5013353;28;20195;-73
2022/06/16 05:05:01;;;;;;;6.60;3.90;;;13.30;99.90;;;;;;5014323;28;20187;-72
2022/06/16 05:07:45;;;;;;;7.57;3.73;;;13.30;99.90;;;;;;5016560;28;20242;-74
2022/06/16 05:10:29;;;;;;;5.77;3.50;;;13.30;99.90;;;;;;5032471;28;20219;-73
2022/06/16 05:13:14;;;;;;;6.07;3.77;;;13.40;99.90;;;;;;5022529;28;20246;-73
2022/06/16 05:15:58;;;;;;;5.03;4.00;;;13.40;99.90;;;;;;5027611;28;20190;-73
2022/06/16 05:18:43;;;;;;;6.20;3.70;;;13.40;99.90;;;;;;5011942;28;20198;-75
2022/06/16 05:21:27;;;;;;;5.37;3.57;;;13.50;99.90;;;;;;5015326;28;20235;-73
2022/06/16 05:24:11;;;;;;;5.30;3.63;;;13.50;99.90;;;;;;5009302;28;20242;-74
2022/06/16 05:26:55;;;;;;;7.20;4.00;;;13.50;99.90;;;;;;5004660;28;20215;-74
2022/06/16 05:29:39;;;;;;;4.73;3.80;;;13.50;99.90;;;;;;5010581;28;20245;-75
2022/06/16 05:32:23;;;;;;;6.97;3.87;;;13.50;99.90;;;;;;5006919;28;20231;-73
2022/06/16 05:35:08;;;;;;;7.10;3.80;;;13.60;99.90;;;;;;5012908;28;20251;-74
2022/06/16 05:37:53;;;;;;;5.83;3.57;;;13.70;99.90;;;;;;4998985;28;20177;-74
2022/06/16 05:40:37;;;;;;;5.63;3.90;;;13.90;99.90;;;;;;5002531;28;20274;-73
2022/06/16 05:43:21;;;;;;;6.87;3.23;;;14.00;99.90;;;;;;5025788;28;20251;-74
2022/06/16 05:46:07;;;;;;;7.40;4.00;;;14.10;99.90;;;;;;5013044;28;20671;-75
2022/06/16 05:48:52;;;;;;;6.70;3.63;;;14.20;99.90;;;;;;5013683;28;20204;-73
2022/06/16 05:51:38;;;;;;;7.37;3.60;;;14.30;99.90;;;;;;5012616;28;20726;-74
2022/06/16 05:54:22;;;;;;;6.97;3.47;;;14.40;99.90;;;;;;5023390;28;20188;-74
2022/06/16 05:57:08;;;;;;;7.83;3.33;;;14.50;99.90;;;;;;5023234;28;20195;-73
2022/06/16 05:59:52;;;;;;;9.33;3.10;;;14.60;99.90;;;;;;5018359;28;20187;-74
2022/06/16 06:02:36;;;;;;;6.10;3.33;;;14.60;99.90;;;;;;5011544;28;20196;-74
2022/06/16 06:05:21;;;;;;;13.53;4.03;;;14.70;99.90;;;;;;5005738;28;20242;-73
2022/06/16 06:17:24;;;;;;;4.90;2.33;;;14.80;99.90;;;;;;5028864;28;20230;-74
2022/06/16 06:20:09;;;;;;;5.53;2.63;;;14.90;99.90;;;;;;5006619;28;20214;-74
2022/06/16 06:22:53;;;;;;;5.20;2.33;;;15.00;99.90;;;;;;5014263;28;20226;-74
2022/06/16 06:25:38;;;;;;;4.97;2.10;;;15.00;99.90;;;;;;5005156;28;20191;-74
2022/06/16 06:28:23;;;;;;;9.43;2.67;;;15.00;99.90;;;;;;5022119;28;20544;-74
2022/06/16 06:31:07;;;;;;;4.30;2.40;;;15.00;99.90;;;;;;5025658;28;20263;-74
2022/06/16 06:33:51;;;;;;;7.00;2.07;;;15.10;99.90;;;;;;5013011;28;20239;-75
2022/06/16 06:36:35;;;;;;;5.03;2.00;;;15.20;99.90;;;;;;5006062;28;20188;-75
2022/06/16 06:39:19;;;;;;;8.93;2.30;;;15.20;99.90;;;;;;5013328;28;20283;-75
2022/06/16 06:42:06;;;;;;;2.30;2.10;;;15.30;99.90;;;;;;5013656;28;20207;-75
2022/06/16 06:44:51;;;;;;;3.57;2.07;;;15.50;99.90;;;;;;5011457;28;20249;-75
2022/06/16 06:47:35;;;;;;;2.47;1.97;;;15.60;99.90;;;;;;5032302;28;20195;-74
2022/06/16 06:50:25;;;;;;;2.20;1.57;;;15.60;99.90;;;;;;5009374;28;20266;-75
2022/06/16 06:53:10;;;;;;;5.63;1.60;;;15.70;99.90;;;;;;5008662;28;20203;-74
2022/06/16 06:55:54;;;;;;;2.53;1.53;;;15.80;99.90;;;;;;5007732;28;20716;-75
2022/06/16 06:58:38;;;;;;;5.83;1.43;;;15.90;99.90;;;;;;5022277;28;20675;-75
2022/06/16 07:01:23;;;;;;;5.90;1.70;;;16.00;99.90;;;;;;5026040;28;20266;-75
2022/06/16 07:04:07;;;;;;;4.07;1.50;;;16.10;99.90;;;;;;5025849;28;20188;-75
2022/06/16 07:06:51;;;;;;;4.43;1.60;;;16.10;99.90;;;;;;5013071;28;20246;-75
2022/06/16 07:09:36;;;;;;;4.90;1.63;;;16.20;99.90;;;;;;5010499;28;20183;-75
2022/06/16 07:12:20;;;;;;;5.07;1.77;;;16.20;99.90;;;;;;5014319;28;20230;-75
2022/06/16 07:15:05;;;;;;;3.43;1.57;;;16.30;99.90;;;;;;5017840;28;20181;-75
2022/06/16 07:17:50;;;;;;;4.00;1.83;;;16.40;99.90;;;;;;5016843;28;20188;-74
2022/06/16 07:20:34;;;;;;;2.90;2.03;;;16.40;99.90;;;;;;5006353;28;20220;-74
2022/06/16 07:23:19;;;;;;;3.07;1.60;;;16.40;99.90;;;;;;5024350;28;20195;-75
2022/06/16 07:26:04;;;;;;;3.03;1.60;;;16.50;99.90;;;;;;5000839;28;20603;-75
2022/06/16 07:28:48;;;;;;;3.17;1.60;;;16.50;99.90;;;;;;5014091;28;20249;-75
2022/06/16 07:31:32;;;;;;;4.83;1.90;;;16.60;99.90;;;;;;5010377;28;20218;-75
2022/06/16 07:34:17;;;;;;;2.83;1.70;;;16.60;99.90;;;;;;5006264;28;20987;-75
2022/06/16 07:37:02;;;;;;;5.47;1.87;;;16.60;99.90;;;;;;5014933;28;20222;-75
2022/06/16 07:39:47;;;;;;;3.50;1.70;;;16.70;99.90;;;;;;5011192;28;20187;-75
2022/06/16 07:42:31;;;;;;;3.80;1.60;;;16.70;99.90;;;;;;5013313;28;20268;-75
2022/06/16 07:45:15;;;;;;;13.53;2.60;;;16.70;99.90;;;;;;5027578;28;20374;-75
2022/06/16 07:48:00;;;;;;;2.83;1.70;;;16.70;99.90;;;;;;5022327;28;20199;-75
2022/06/16 07:50:44;;;;;;;4.40;1.70;;;16.80;99.90;;;;;;5006322;28;20223;-75
2022/06/16 07:53:28;;;;;;;2.97;1.60;;;16.80;99.90;;;;;;5022194;28;20210;-75
2022/06/16 07:56:12;;;;;;;2.93;1.70;;;16.80;99.90;;;;;;5024431;28;20220;-74
2022/06/16 07:58:56;;;;;;;2.13;1.20;;;16.80;99.90;;;;;;5003484;28;20238;-74
2022/06/16 08:01:40;;;;;;;4.50;1.20;;;16.80;99.90;;;;;;5025095;28;20210;-75
2022/06/16 08:04:26;;;;;;;1.60;1.00;;;16.80;99.90;;;;;;5010383;28;20195;-75
2022/06/16 08:07:10;;;;;;;3.23;1.10;;;16.90;99.90;;;;;;5011561;28;20194;-75
2022/06/16 08:09:54;;;;;;;5.27;1.50;;;16.90;99.90;;;;;;5014102;28;20275;-75
2022/06/16 08:12:39;;;;;;;3.57;1.30;;;16.90;99.90;;;;;;5021856;28;20211;-75
2022/06/16 08:15:23;;;;;;;3.90;1.07;;;17.00;99.90;;;;;;5018260;28;20214;-75
2022/06/16 08:18:10;;;;;;;1.80;1.13;;;17.10;99.90;;;;;;5010798;28;20263;-76
2022/06/16 08:20:55;;;;;;;1.63;1.00;;;17.20;99.90;;;;;;5012806;28;20342;-75
2022/06/16 08:23:39;;;;;;;1.83;1.20;;;17.30;99.90;;;;;;5027427;28;20211;-75
2022/06/16 08:26:23;;;;;;;3.00;1.20;;;17.30;99.90;;;;;;5000815;28;20235;-75
2022/06/16 08:29:11;;;;;;;3.50;1.40;;;17.40;99.90;;;;;;5019997;28;20234;-75
2022/06/16 08:31:57;;;;;;;2.23;1.10;;;17.30;99.90;;;;;;5014093;28;20311;-75
2022/06/16 08:34:41;;;;;;;4.50;1.00;;;17.40;99.90;;;;;;5010332;28;20186;-75
2022/06/16 08:37:25;;;;;;;3.27;1.23;;;17.50;99.90;;;;;;5008665;28;20279;-75
2022/06/16 08:40:11;;;;;;;3.77;1.07;;;17.50;99.90;;;;;;5024475;28;20219;-75
2022/06/16 08:43:01;;;;;;;2.33;1.00;;;17.60;99.90;;;;;;5002032;28;20200;-74
2022/06/16 08:45:54;;;;;;;2.60;1.23;;;17.70;99.90;;;;;;5024590;28;20241;-75
2022/06/16 08:49:01;;;;;;;2.53;1.13;;;17.80;99.90;;;;;;5027957;28;20187;-75
2022/06/16 08:52:25;;;;;;;2.77;1.13;;;18.00;99.90;;;;;;5002923;28;20277;-75
2022/06/16 08:55:23;;;;;;;1.37;1.13;;;18.10;99.90;;;;;;5026519;28;20191;-75
2022/06/16 08:58:07;;;;;;;2.70;0.97;;;18.10;99.90;;;;;;5022142;28;20284;-75
2022/06/16 09:00:58;;;;;;;3.37;1.30;;;18.20;99.90;;;;;;5020911;28;20319;-75
2022/06/16 09:03:53;;;;;;;2.93;1.20;;;18.30;99.90;;;;;;5014250;28;20226;-75
2022/06/16 09:06:56;;;;;;;3.47;0.90;;;18.40;99.90;;;;;;5002853;28;20191;-75
2022/06/16 09:13:08;;;;;;;2.93;1.13;;;18.50;99.90;;;;;;5024843;28;20552;-74
2022/06/16 09:16:22;;;;;;;2.17;1.00;;;18.50;99.90;;;;;;5023893;28;20191;-74
2022/06/16 09:19:37;;;;;;;2.30;0.70;;;18.60;99.90;;;;;;5025004;28;20195;-75
2022/06/16 09:22:59;;;;;;;4.07;0.70;;;18.60;99.90;;;;;;5004734;28;20721;-74
2022/06/16 09:26:14;;;;;;;1.83;0.73;;;18.60;99.90;;;;;;4991917;28;20222;-75
2022/06/16 09:29:00;;;;;;;2.33;1.17;;;18.70;99.90;;;;;;5009051;28;20184;-74
2022/06/16 09:32:06;;;;;;;2.47;0.60;;;18.80;99.90;;;;;;5011202;28;20642;-75
2022/06/16 09:34:54;;;;;;;1.80;0.90;;;18.90;99.90;;;;;;5012328;28;20258;-75
2022/06/16 09:37:43;;;;;;;3.90;0.80;;;19.00;99.90;;;;;;5008287;28;20199;-75
2022/06/16 09:40:39;;;;;;;2.33;0.75;;;19.00;99.90;;;;;;5027503;28;20243;-75
2022/06/16 09:43:42;;;;;;;1.70;1.10;;;19.00;99.90;;;;;;5020031;28;20615;-74
2022/06/16 09:46:35;;;;;;;1.97;0.97;;;19.20;99.90;;;;;;5010607;28;20275;-76
2022/06/16 09:49:25;;;;;;;2.10;1.23;;;19.20;99.90;;;;;;5012839;28;20561;-74
2022/06/16 09:52:22;;;;;;;13.90;1.60;;;19.20;99.90;;;;;;5013969;28;20212;-76
2022/06/16 09:55:46;;;;;;;2.63;1.10;;;19.20;99.90;;;;;;5011236;28;20565;-75
2022/06/16 09:59:14;;;;;;;1.05;0.77;;;19.30;99.90;;;;;;4986254;28;20199;-74
2022/06/16 10:02:13;;;;;;;2.40;0.90;;;19.30;99.90;;;;;;4989186;28;20280;-74
2022/06/16 10:04:57;;;;;;;3.30;1.10;;;19.40;99.90;;;;;;5031495;28;20204;-75
2022/06/16 10:08:04;;;;;;;3.83;1.13;;;19.50;99.90;;;;;;5005398;28;20211;-75
2022/06/16 10:11:17;;;;;;;1.73;0.90;;;19.60;99.90;;;;;;5034200;28;20341;-75
2022/06/16 10:14:32;;;;;;;4.22;1.10;;;19.60;99.90;;;;;;5029824;28;20199;-75
2022/06/16 10:17:20;;;;;;;2.05;0.90;;;19.70;99.90;;;;;;5025880;28;20245;-75
2022/06/16 10:20:06;;;;;;;1.33;0.98;;;19.80;99.90;;;;;;5013880;28;20317;-75
2022/06/16 10:22:56;;;;;;;3.92;1.10;;;19.90;99.90;;;;;;5012846;28;20187;-74
2022/06/16 10:25:45;;;;;;;3.60;1.13;;;19.90;99.90;;;;;;5015766;28;20207;-75
2022/06/16 10:28:56;;;;;;;1.63;1.08;;;20.00;99.90;;;;;;5027660;28;20249;-75
2022/06/16 10:31:45;;;;;;;2.58;1.23;;;20.20;99.90;;;;;;5022918;28;20312;-75
2022/06/16 10:34:36;;;;;;;3.65;1.08;;;20.30;99.90;;;;;;5014502;28;20199;-75
2022/06/16 10:37:24;;;;;;;1.92;0.85;;;20.30;99.90;;;;;;5028338;28;20273;-74
2022/06/16 10:40:12;;;;;;;3.28;1.13;;;20.40;99.90;;;;;;5012892;28;20222;-74
2022/06/16 10:43:08;;;;;;;1.60;0.75;;;20.50;99.90;;;;;;5027203;28;20551;-74
2022/06/16 10:46:09;;;;;;;1.70;0.90;;;20.50;99.90;;;;;;5007628;28;20216;-75
2022/06/16 10:48:56;;;;;;;1.70;1.13;;;20.60;99.90;;;;;;5014302;28;20191;-74
2022/06/16 10:51:55;;;;;;;1.60;0.90;;;20.60;99.90;;;;;;5015140;28;20346;-76
2022/06/16 10:54:54;;;;;;;2.22;1.25;;;20.60;99.90;;;;;;5008777;28;20243;-75
2022/06/16 10:57:45;;;;;;;2.97;1.20;;;20.60;99.90;;;;;;5025779;28;20184;-74
2022/06/16 11:00:33;;;;;;;1.20;0.93;;;20.60;99.90;;;;;;5010884;28;20234;-75
2022/06/16 11:03:17;;;;;;;5.28;1.20;;;20.60;99.90;;;;;;5010607;28;20198;-75
2022/06/16 11:06:04;;;;;;;3.75;1.10;;;20.60;99.90;;;;;;5000773;28;20186;-75
2022/06/16 11:08:52;;;;;;;6.70;1.17;;;20.70;99.90;;;;;;5014137;28;20187;-75
2022/06/16 11:11:46;;;;;;;2.35;0.82;;;20.70;99.90;;;;;;5005859;28;20242;-75
2022/06/16 11:14:56;;;;;;;3.05;1.08;;;20.70;99.90;;;;;;5010657;28;20281;-74
2022/06/16 11:17:46;;;;;;;4.10;1.15;;;20.70;99.90;;;;;;5006404;28;20268;-74
2022/06/16 11:20:39;;;;;;;1.27;0.80;;;20.80;99.90;;;;;;5011508;28;20210;-74
2022/06/16 11:23:44;;;;;;;4.28;1.40;;;20.70;99.90;;;;;;5012897;28;20614;-74
2022/06/16 11:26:37;;;;;;;4.72;1.40;;;20.70;99.90;;;;;;5002730;28;20226;-76
2022/06/16 11:29:33;;;;;;;3.35;0.90;;;20.80;99.90;;;;;;5001287;28;20230;-76
2022/06/16 11:32:19;;;;;;;1.80;1.10;;;20.80;99.90;;;;;;4998002;28;20222;-76
2022/06/16 11:35:05;;;;;;;4.15;1.00;;;20.80;99.90;;;;;;5027242;28;20190;-73
2022/06/16 11:37:59;;;;;;;11.98;1.38;;;20.80;99.90;;;;;;5027520;28;20282;-76
2022/06/16 11:40:57;;;;;;;7.80;1.33;;;20.90;99.90;;;;;;5027705;28;20307;-76
2022/06/16 11:44:00;;;;;;;15.27;2.67;;;21.00;99.90;;;;;;5021134;28;20269;-75
2022/06/16 11:46:54;;;;;;;3.75;1.00;;;21.00;99.90;;;;;;5017122;28;20222;-78
2022/06/16 11:49:52;;;;;;;1.13;1.02;;;21.10;99.90;;;;;;5004738;28;20207;-76
2022/06/16 11:53:18;;;;;;;2.08;1.10;;;21.00;99.90;;;;;;5011118;28;20612;-75
2022/06/16 11:56:15;;;;;;;10.68;1.52;;;21.00;99.90;;;;;;5013546;28;20196;-74
2022/06/16 11:59:19;;;;;;;4.93;1.58;;;21.10;99.90;;;;;;5005816;28;20243;-75
2022/06/16 12:02:15;;;;;;;3.05;1.25;;;21.10;99.90;;;;;;5031307;28;20254;-76
2022/06/16 12:05:17;;;;;;;16.75;2.60;;;21.20;99.90;;;;;;5028136;28;20190;-75
2022/06/16 12:08:25;;;;;;;3.08;1.38;;;21.30;99.90;;;;;;5024367;28;20191;-77
2022/06/16 12:11:20;;;;;;;30.08;5.20;;;21.50;99.90;;;;;;5015952;28;20726;-75
2022/06/16 12:14:10;;;;;;;5.35;1.40;;;21.60;99.90;;;;;;4998634;28;20199;-76
2022/06/16 12:17:28;;;;;;;3.55;1.40;;;21.60;99.90;;;;;;5010987;28;20191;-77
2022/06/16 12:20:15;;;;;;;8.93;2.30;;;21.80;99.90;;;;;;5008609;28;20729;-77
2022/06/16 12:23:08;;;;;;;2.17;1.35;;;21.90;99.90;;;;;;5026761;28;20211;-76
2022/06/16 12:26:23;;;;;;;2.58;1.20;;;21.90;99.90;;;;;;5008767;28;20235;-76
2022/06/16 12:29:43;;;;;;;5.07;1.20;;;22.00;99.90;;;;;;5019097;28;20180;-77
2022/06/16 12:32:30;;;;;;;3.83;1.50;;;21.80;99.90;;;;;;5012360;28;20233;-76
2022/06/16 12:35:33;;;;;;;3.15;1.40;;;21.80;99.90;;;;;;5030940;28;20187;-76
2022/06/16 12:38:31;;;;;;;2.05;1.40;;;21.80;99.90;;;;;;5013324;28;20630;-76
2022/06/16 12:41:23;;;;;;;3.72;1.35;;;21.70;99.90;;;;;;5009034;28;20230;-76
2022/06/16 12:44:14;;;;;;;2.47;1.08;;;21.70;99.90;;;;;;5010576;28;20195;-76
2022/06/16 12:47:10;;;;;;;4.00;1.40;;;21.60;99.90;;;;;;5017236;28;20184;-78
2022/06/16 12:49:59;;;;;;;4.47;1.90;;;21.60;99.90;;;;;;5025014;28;20211;-77
2022/06/16 12:52:57;;;;;;;3.15;1.50;;;21.60;99.90;;;;;;5021440;28;20226;-76
2022/06/16 12:55:46;;;;;;;2.45;1.30;;;21.70;99.90;;;;;;5024225;28;20322;-77
2022/06/16 12:58:36;;;;;;;2.58;1.20;;;21.80;99.90;;;;;;5009861;28;20199;-77
2022/06/16 13:01:20;;;;;;;3.35;1.20;;;21.90;99.90;;;;;;5009454;28;20259;-77
2022/06/16 13:04:14;;;;;;;2.85;1.33;;;21.90;99.90;;;;;;5007879;28;20191;-76
2022/06/16 13:07:03;;;;;;;1.70;1.20;;;22.00;99.90;;;;;;5004276;28;20695;-78
2022/06/16 13:09:47;;;;;;;5.55;1.25;;;22.00;99.90;;;;;;5007217;28;20200;-78
2022/06/16 13:12:43;;;;;;;14.38;2.30;;;22.10;99.90;;;;;;5011515;28;20292;-78
2022/06/16 13:15:45;;;;;;;7.00;1.75;;;22.30;99.90;;;;;;5011945;28;20218;-76
2022/06/16 13:18:44;;;;;;;3.83;1.40;;;22.40;99.90;;;;;;5013392;28;20254;-78
2022/06/16 13:21:34;;;;;;;4.20;1.30;;;22.50;99.90;;;;;;5009102;28;20224;-77
2022/06/16 13:24:34;;;;;;;2.60;1.30;;;22.50;99.90;;;;;;5013562;28;20194;-78
2022/06/16 13:27:29;;;;;;;2.33;1.30;;;22.40;99.90;;;;;;5012261;28;20259;-78
2022/06/16 13:30:23;;;;;;;4.25;1.40;;;22.30;99.90;;;;;;5011253;28;20227;-77
2022/06/16 13:33:07;;;;;;;11.68;1.83;;;22.30;99.90;;;;;;5021677;28;20253;-77
2022/06/16 13:36:09;;;;;;;11.80;2.17;;;22.30;99.90;;;;;;5016735;28;20194;-78
2022/06/16 13:38:54;;;;;;;7.28;1.20;;;22.40;99.90;;;;;;5008064;28;20654;-78
2022/06/16 13:41:46;;;;;;;3.28;1.42;;;22.40;99.90;;;;;;5027969;28;20251;-78
2022/06/16 13:44:30;;;;;;;1.52;0.93;;;22.40;99.90;;;;;;5011933;28;20246;-77
2022/06/16 13:47:14;;;;;;;6.80;1.38;;;22.50;99.90;;;;;;5029308;28;20194;-78
2022/06/16 13:50:00;;;;;;;3.35;1.10;;;22.50;99.90;;;;;;5030001;28;20199;-78
2022/06/16 13:53:06;;;;;;;6.47;1.20;;;22.60;99.90;;;;;;5027558;28;20210;-78
2022/06/16 13:56:06;;;;;;;10.15;1.30;;;22.60;99.90;;;;;;5026358;28;20222;-77
2022/06/16 13:58:50;;;;;;;3.40;1.23;;;22.50;99.90;;;;;;5014678;28;20551;-77
2022/06/16 14:02:08;;;;;;;5.28;1.10;;;22.50;99.90;;;;;;5017644;28;20636;-77
2022/06/16 14:05:07;;;;;;;2.85;1.10;;;22.50;99.90;;;;;;5018707;28;20238;-77
2022/06/16 14:08:00;;;;;;;5.20;1.25;;;22.50;99.90;;;;;;5007575;28;20223;-79
2022/06/16 14:10:48;;;;;;;3.63;0.95;;;22.50;99.90;;;;;;5009441;28;20691;-79
2022/06/16 14:13:43;;;;;;;1.77;0.90;;;22.40;99.90;;;;;;5009460;28;20200;-79
2022/06/16 14:16:37;;;;;;;2.42;1.05;;;22.50;99.90;;;;;;5032378;28;20738;-77
2022/06/16 14:19:24;;;;;;;3.78;1.17;;;22.60;99.90;;;;;;5009859;28;20242;-83
2022/06/16 14:22:17;;;;;;;2.60;1.10;;;22.60;99.90;;;;;;5026828;28;20272;-81
2022/06/16 14:25:09;;;;;;;4.60;1.13;;;22.70;99.90;;;;;;5029939;28;20230;-81
2022/06/16 14:27:58;;;;;;;9.23;1.42;;;22.80;99.90;;;;;;5011332;28;20195;-81
2022/06/16 14:30:47;;;;;;;2.20;1.35;;;22.80;99.90;;;;;;5028693;28;20258;-80
2022/06/16 14:33:55;;;;;;;4.07;1.40;;;22.80;99.90;;;;;;5011065;28;20312;-81
2022/06/16 14:36:47;;;;;;;2.13;1.00;;;23.00;99.90;;;;;;5031548;28;20718;-81
2022/06/16 14:39:44;;;;;;;1.00;0.88;;;23.00;99.90;;;;;;5017183;28;20220;-82
2022/06/16 14:42:32;;;;;;;2.08;1.02;;;23.10;99.90;;;;;;5017222;28;20670;-81
2022/06/16 14:45:23;;;;;;;2.50;0.90;;;23.20;99.90;;;;;;5034004;28;20202;-81
2022/06/16 14:48:15;;;;;;;2.33;1.20;;;23.30;99.90;;;;;;5032640;28;20183;-81
2022/06/16 14:51:06;;;;;;;2.45;1.35;;;23.50;99.90;;;;;;5014280;28;20277;-81
2022/06/16 14:54:07;;;;;;;6.28;1.05;;;23.70;99.90;;;;;;5025221;28;20736;-82
2022/06/16 14:56:55;;;;;;;5.07;1.08;;;23.80;99.90;;;;;;5020598;28;20181;-82
2022/06/16 14:59:39;;;;;;;2.55;1.05;;;23.80;99.90;;;;;;5016148;28;20202;-84
2022/06/16 15:02:26;;;;;;;2.13;0.88;;;23.80;99.90;;;;;;5032236;28;20319;-82
2022/06/16 15:05:13;;;;;;;2.70;1.10;;;23.70;99.90;;;;;;5010437;28;20258;-81